createdAt,value
2018-08-28T00:01:14.506Z,76.23
2018-08-28T00:03:44.458Z,75.96
2018-08-28T00:06:14.112Z,76.16
2018-08-28T00:08:43.965Z,75.83
2018-08-28T00:11:13.738Z,76.00
2018-08-28T00:13:43.512Z,75.90
2018-08-28T00:16:13.518Z,75.68
2018-08-28T00:18:43.090Z,75.75
2018-08-28T00:21:12.749Z,76.12
2018-08-28T00:23:42.781Z,75.66
2018-08-28T00:26:12.594Z,76.34
2018-08-28T00:28:42.006Z,76.04
2018-08-28T00:31:11.854Z,75.79
2018-08-28T00:33:41.347Z,75.70
2018-08-28T00:36:10.886Z,75.74
2018-08-28T00:38:40.443Z,75.79
2018-08-28T00:58:31.169Z,76.50
2018-08-28T01:01:01.141Z,76.39
2018-08-28T01:03:30.907Z,76.13
2018-08-28T01:06:01.904Z,76.02
2018-08-28T01:08:31.601Z,75.86
2018-08-28T01:11:01.294Z,76.18
2018-08-28T01:30:52.460Z,75.97
2018-08-28T01:50:41.492Z,76.17
2018-08-28T01:53:11.238Z,75.96
2018-08-28T01:55:41.652Z,76.38
2018-08-28T01:58:11.458Z,76.53
2018-08-28T02:00:41.896Z,76.94
2018-08-28T02:03:11.643Z,77.09
2018-08-28T02:05:41.281Z,77.19
2018-08-28T02:08:11.216Z,77.48
2018-08-28T02:10:40.949Z,77.76
2018-08-28T02:13:11.093Z,78.16
2018-08-28T02:33:00.639Z,79.16
2018-08-28T02:35:30.269Z,79.34
2018-08-28T02:38:00.201Z,79.21
2018-08-28T02:40:30.506Z,78.72
2018-08-28T03:00:21.775Z,78.82
2018-08-28T03:02:53.662Z,78.53
2018-08-28T03:05:23.625Z,78.48
2018-08-28T03:07:53.548Z,78.94
2018-08-28T03:10:23.136Z,78.54
2018-08-28T03:12:52.488Z,78.37
2018-08-28T03:53:00.281Z,78.54
2018-08-28T03:55:30.210Z,78.26
2018-08-28T03:57:59.803Z,78.13
2018-08-28T04:00:29.532Z,78.35
2018-08-28T04:03:15.858Z,78.44
2018-08-28T04:23:06.261Z,77.49
2018-08-28T04:25:36.617Z,77.59
2018-08-28T04:28:06.194Z,77.31
2018-08-28T04:30:35.882Z,77.51
2018-08-28T04:33:05.653Z,77.13
2018-08-28T04:35:35.336Z,77.33
2018-08-28T04:55:27.625Z,77.09
2018-08-28T04:57:57.385Z,77.10
2018-08-28T05:00:27.120Z,76.56
2018-08-28T05:02:56.941Z,76.46
2018-08-28T05:05:26.425Z,76.18
2018-08-28T05:07:56.139Z,76.95
2018-08-28T05:10:26.059Z,76.77
2018-08-28T05:12:55.969Z,76.94
2018-08-28T05:15:25.585Z,77.13
2018-08-28T05:17:55.386Z,77.15
2018-08-28T05:20:24.805Z,76.88
2018-08-28T05:22:54.621Z,76.32
2018-08-28T05:25:24.516Z,76.16
2018-08-28T05:27:54.170Z,75.76
2018-08-28T05:30:24.164Z,76.23
2018-08-28T05:32:53.975Z,76.19
2018-08-28T05:35:23.898Z,76.09
2018-08-28T05:37:53.872Z,75.91
2018-08-28T05:40:23.730Z,75.68
2018-08-28T05:42:53.615Z,75.57
2018-08-28T05:45:23.656Z,74.89
2018-08-28T05:47:53.334Z,75.01
2018-08-28T05:50:23.190Z,75.55
2018-08-28T05:52:52.916Z,74.79
2018-08-28T05:55:22.636Z,74.54
2018-08-28T05:57:52.106Z,74.71
2018-08-28T06:00:21.709Z,74.54
2018-08-28T06:02:51.290Z,74.28
2018-08-28T06:05:21.235Z,73.86
2018-08-28T06:07:50.805Z,74.41
2018-08-28T06:10:20.379Z,73.88
2018-08-28T06:12:50.268Z,73.71
2018-08-28T06:15:20.049Z,73.44
2018-08-28T06:17:49.438Z,73.39
2018-08-28T06:20:19.318Z,72.73
2018-08-28T06:22:48.678Z,73.02
2018-08-28T06:25:18.260Z,73.03
2018-08-28T06:27:47.695Z,73.37
2018-08-28T06:30:17.100Z,73.31
2018-08-28T06:32:46.505Z,73.05
2018-08-28T06:35:16.383Z,72.69
2018-08-28T06:55:07.636Z,70.05
2018-08-28T06:57:38.347Z,70.11
2018-08-28T07:00:08.629Z,70.55
2018-08-28T07:02:39.730Z,70.47
2018-08-28T07:05:09.645Z,70.51
2018-08-28T07:07:39.530Z,69.78
2018-08-28T07:10:09.865Z,69.93
2018-08-28T07:12:39.649Z,70.50
2018-08-28T07:15:09.139Z,70.75
2018-08-28T07:17:39.160Z,70.49
2018-08-28T07:20:08.642Z,70.12
2018-08-28T07:22:38.261Z,70.22
2018-08-28T07:25:08.253Z,70.83
2018-08-28T07:27:37.971Z,70.43
2018-08-28T07:30:07.989Z,70.91
2018-08-28T07:32:38.062Z,70.88
2018-08-28T07:35:07.937Z,70.72
2018-08-28T07:37:37.650Z,70.85
2018-08-28T07:57:27.574Z,70.58
2018-08-28T07:59:57.329Z,70.59
2018-08-28T08:02:27.197Z,71.15
2018-08-28T08:04:57.029Z,70.35
2018-08-28T08:07:27.200Z,70.20
2018-08-28T08:09:56.849Z,70.05
2018-08-28T08:12:26.828Z,69.37
2018-08-28T08:14:56.229Z,69.31
2018-08-28T08:17:25.966Z,69.44
2018-08-28T08:37:16.820Z,68.59
2018-08-28T08:39:46.383Z,67.67
2018-08-28T08:42:16.477Z,68.30
2018-08-28T08:44:46.761Z,67.54
2018-08-28T08:47:16.442Z,67.80
2018-08-28T08:49:46.049Z,67.79
2018-08-28T08:52:16.223Z,67.42
2018-08-28T08:54:45.654Z,66.86
2018-08-28T08:57:15.260Z,66.57
2018-08-28T08:59:45.087Z,67.13
2018-08-28T09:02:14.714Z,67.45
2018-08-28T09:04:44.211Z,66.85
2018-08-28T09:07:14.591Z,66.07
2018-08-28T09:09:44.979Z,65.24
2018-08-28T09:12:14.679Z,65.66
2018-08-28T09:14:44.572Z,65.63
2018-08-28T09:17:14.392Z,65.66
2018-08-28T09:19:44.105Z,64.87
2018-08-28T09:22:15.195Z,65.16
2018-08-28T09:24:44.751Z,65.17
2018-08-28T09:27:14.511Z,64.61
2018-08-28T09:29:44.004Z,63.29
2018-08-28T09:32:13.399Z,63.65
2018-08-28T09:34:43.338Z,63.63
2018-08-28T09:37:13.544Z,64.29
2018-08-28T09:39:43.545Z,64.78
2018-08-28T09:42:13.615Z,65.59
2018-08-28T09:44:43.029Z,65.26
2018-08-28T09:47:12.666Z,64.80
2018-08-28T09:49:42.729Z,64.03
2018-08-28T09:52:12.215Z,64.55
2018-08-28T09:54:41.587Z,63.91
2018-08-28T09:57:11.742Z,64.11
2018-08-28T09:59:41.296Z,63.93
2018-08-28T10:02:11.161Z,63.44
2018-08-28T10:22:00.053Z,60.31
2018-08-28T10:24:29.722Z,60.17
2018-08-28T10:26:59.347Z,60.06
2018-08-28T10:29:29.053Z,59.23
2018-08-28T10:31:58.475Z,59.47
2018-08-28T10:34:28.335Z,58.69
2018-08-28T10:36:58.038Z,57.82
2018-08-28T10:39:27.487Z,57.30
2018-08-28T10:41:57.187Z,56.93
2018-08-28T10:44:26.692Z,57.29
2018-08-28T10:46:56.370Z,57.23
2018-08-28T10:49:25.819Z,57.76
2018-08-28T10:51:55.865Z,57.20
2018-08-28T10:54:25.561Z,57.13
2018-08-28T10:56:55.076Z,55.66
2018-08-28T10:59:24.807Z,55.50
2018-08-28T11:01:54.597Z,54.96
2018-08-28T11:04:24.129Z,54.46
2018-08-28T11:06:54.128Z,53.38
2018-08-28T11:09:23.518Z,53.48
2018-08-28T11:11:53.064Z,52.74
2018-08-28T11:14:22.938Z,51.52
2018-08-28T11:16:52.437Z,52.15
2018-08-28T11:19:21.826Z,51.64
2018-08-28T11:21:51.339Z,51.32
2018-08-28T11:24:20.857Z,50.79
2018-08-28T11:55:47.019Z,47.31
2018-08-28T11:58:16.850Z,47.53
2018-08-28T12:00:46.454Z,45.50
2018-08-28T12:03:16.547Z,46.62
2018-08-28T12:05:46.130Z,44.96
2018-08-28T12:08:16.265Z,44.68
2018-08-28T12:10:46.286Z,45.43
2018-08-28T12:13:16.511Z,44.77
2018-08-28T12:15:46.198Z,43.95
2018-08-28T12:18:16.253Z,42.10
2018-08-28T12:20:45.899Z,43.21
2018-08-28T12:23:15.565Z,42.69
2018-08-28T12:43:06.291Z,40.11
2018-08-28T13:02:57.517Z,36.33
2018-08-28T13:05:27.700Z,35.72
2018-08-28T13:25:19.700Z,35.04
2018-08-28T13:27:49.777Z,34.96
2018-08-28T13:30:19.519Z,34.55
2018-08-28T13:32:49.325Z,34.10
2018-08-28T13:35:19.171Z,33.52
2018-08-28T13:37:48.735Z,33.60
2018-08-28T13:40:18.621Z,33.94
2018-08-28T14:00:11.664Z,35.07
2018-08-28T14:02:41.317Z,34.62
2018-08-28T14:05:11.006Z,35.26
2018-08-28T14:07:41.441Z,35.83
2018-08-28T14:10:11.033Z,34.98
2018-08-28T14:12:40.723Z,34.21
2018-08-28T14:15:10.811Z,34.46
2018-08-28T14:17:40.342Z,34.65
2018-08-28T14:37:32.980Z,35.87
2018-08-28T14:40:03.039Z,35.80
2018-08-28T14:59:54.417Z,35.89
2018-08-28T15:02:24.266Z,35.01
2018-08-28T15:04:54.084Z,35.52
2018-08-28T15:07:24.192Z,35.39
2018-08-28T15:09:53.748Z,35.54
2018-08-28T15:12:23.376Z,35.83
2018-08-28T15:14:53.231Z,37.27
2018-08-28T15:17:22.965Z,38.05
2018-08-28T15:57:31.233Z,37.09
2018-08-28T16:00:01.420Z,38.06
2018-08-28T16:02:31.250Z,39.07
2018-08-28T16:05:01.319Z,39.40
2018-08-28T16:07:30.951Z,39.50
2018-08-28T16:10:00.854Z,39.05
2018-08-28T16:12:30.328Z,39.52
2018-08-28T16:15:00.448Z,43.21
2018-08-28T16:17:30.100Z,44.86
2018-08-28T16:20:00.008Z,45.17
2018-08-28T16:22:37.796Z,45.24
2018-08-28T16:25:07.420Z,46.17
2018-08-28T16:27:36.882Z,46.74
2018-08-28T16:47:28.559Z,52.89
2018-08-28T16:49:58.012Z,53.60
2018-08-28T16:52:27.426Z,53.72
2018-08-28T16:54:57.626Z,53.67
2018-08-28T16:57:27.425Z,53.81
2018-08-28T16:59:57.088Z,54.44
2018-08-28T17:02:26.615Z,54.07
2018-08-28T17:04:56.040Z,53.97
2018-08-28T17:07:25.812Z,54.33
2018-08-28T17:09:56.069Z,54.91
2018-08-28T17:12:25.937Z,55.34
2018-08-28T17:14:55.600Z,56.04
2018-08-28T17:17:25.906Z,56.29
2018-08-28T17:37:17.078Z,59.95
2018-08-28T17:39:47.223Z,59.98
2018-08-28T17:42:16.832Z,59.96
2018-08-28T17:44:46.459Z,60.44
2018-08-28T17:47:16.276Z,60.59
2018-08-28T17:49:45.865Z,61.25
2018-08-28T17:52:15.263Z,62.04
2018-08-28T17:54:45.114Z,62.50
2018-08-28T17:57:15.120Z,62.67
2018-08-28T18:17:07.571Z,64.28
2018-08-28T18:19:37.690Z,64.21
2018-08-28T18:22:07.542Z,64.04
2018-08-28T18:24:37.530Z,63.94
2018-08-28T18:27:07.101Z,64.00
2018-08-28T18:29:37.180Z,64.29
2018-08-28T18:49:28.270Z,65.53
2018-08-28T18:51:58.658Z,65.55
2018-08-28T18:54:28.459Z,65.58
2018-08-28T18:56:58.915Z,65.72
2018-08-28T18:59:29.143Z,65.89
2018-08-28T19:01:58.897Z,66.56
2018-08-28T19:04:28.767Z,67.03
2018-08-28T19:06:58.398Z,66.94
2018-08-28T19:09:28.250Z,67.46
2018-08-28T19:11:58.230Z,67.74
2018-08-28T19:14:28.415Z,67.91
2018-08-28T19:16:58.414Z,68.02
2018-08-28T19:19:28.523Z,68.18
2018-08-28T19:21:58.795Z,68.55
2018-08-28T19:24:28.735Z,68.51
2018-08-28T19:58:47.695Z,69.96
2018-08-28T20:01:18.065Z,70.16
2018-08-28T20:03:47.909Z,70.12
2018-08-28T20:06:17.838Z,70.37
2018-08-28T20:08:47.845Z,70.09
2018-08-28T20:11:17.634Z,70.18
2018-08-28T20:13:47.735Z,70.06
2018-08-28T20:16:17.784Z,70.45
2018-08-28T20:18:47.767Z,70.47
2018-08-28T20:21:17.592Z,70.72
2018-08-28T20:23:47.683Z,71.07
2018-08-28T20:26:17.721Z,71.61
2018-08-28T20:28:47.578Z,71.27
2018-08-28T20:31:17.490Z,71.58
2018-08-28T20:33:47.474Z,71.88
2018-08-28T20:36:17.496Z,71.40
2018-08-28T20:38:47.569Z,71.52
2018-08-28T20:41:17.357Z,71.96
2018-08-28T20:43:47.263Z,71.57
2018-08-28T20:46:17.370Z,71.56
2018-08-28T20:48:47.147Z,71.85
2018-08-28T20:51:16.950Z,71.81
2018-08-28T20:53:47.157Z,72.10
2018-08-28T20:56:16.873Z,72.17
2018-08-28T20:58:46.874Z,72.33
2018-08-28T21:01:16.757Z,72.23
2018-08-28T21:03:46.581Z,72.24
2018-08-28T21:06:16.196Z,72.31
2018-08-28T21:08:46.012Z,72.48
2018-08-28T21:11:15.790Z,72.33
2018-08-28T21:13:45.185Z,72.91
2018-08-28T21:16:15.076Z,72.87
2018-08-28T21:18:44.706Z,73.02
2018-08-28T21:21:14.844Z,72.99
2018-08-28T21:23:45.940Z,72.86
2018-08-28T21:26:15.561Z,73.03
2018-08-28T21:28:45.400Z,72.99
2018-08-28T21:31:15.661Z,73.31
2018-08-28T21:33:45.537Z,73.09
2018-08-28T21:36:15.122Z,73.28
2018-08-28T21:38:44.987Z,72.97
2018-08-28T21:41:15.147Z,73.14
2018-08-28T21:43:44.970Z,73.07
2018-08-28T21:46:15.086Z,73.48
2018-08-28T21:48:44.524Z,73.76
2018-08-28T21:51:14.106Z,73.72
2018-08-28T21:53:43.880Z,74.16
2018-08-28T21:56:13.647Z,73.95
2018-08-28T21:58:43.334Z,73.95
2018-08-28T22:01:13.818Z,74.11
2018-08-28T22:03:43.444Z,74.14
2018-08-28T22:06:19.441Z,74.68
2018-08-28T22:08:49.151Z,74.33
2018-08-28T22:11:19.164Z,74.48
2018-08-28T22:13:48.877Z,74.66
2018-08-28T22:16:18.710Z,74.71
2018-08-28T22:18:48.810Z,75.40
2018-08-28T22:21:18.654Z,75.21
2018-08-28T22:23:48.224Z,75.42
2018-08-28T22:26:18.392Z,74.98
2018-08-28T22:28:47.771Z,74.68
2018-08-28T22:31:18.267Z,75.14
2018-08-28T22:33:48.553Z,75.20
2018-08-28T22:36:18.324Z,75.51
2018-08-28T22:38:47.919Z,75.12
2018-08-28T22:41:18.083Z,75.15
2018-08-28T22:43:47.922Z,75.66
2018-08-28T22:46:17.493Z,75.84
2018-08-28T22:48:47.634Z,76.33
2018-08-28T22:51:17.130Z,76.38
2018-08-28T22:53:46.952Z,76.43
2018-08-28T22:56:16.966Z,76.34
2018-08-28T22:58:46.541Z,76.79
2018-08-28T23:01:16.444Z,76.56
2018-08-28T23:03:46.375Z,76.93
2018-08-28T23:06:16.042Z,76.87
2018-08-28T23:08:45.554Z,76.66
2018-08-28T23:11:15.780Z,76.52
2018-08-28T23:13:45.523Z,77.04
2018-08-28T23:16:15.237Z,76.65
2018-08-28T23:18:45.273Z,76.87
2018-08-28T23:21:15.722Z,77.12
2018-08-28T23:23:45.350Z,77.17
2018-08-28T23:26:15.161Z,76.94
2018-08-28T23:28:44.886Z,77.06
2018-08-28T23:31:14.313Z,77.68
2018-08-28T23:33:46.027Z,77.36
2018-08-28T23:36:15.760Z,77.39
2018-08-28T23:38:45.439Z,77.43
2018-08-28T23:41:15.254Z,77.20
2018-08-28T23:43:44.837Z,77.28
2018-08-28T23:46:14.862Z,77.23
2018-08-28T23:48:44.589Z,77.41
2018-08-28T23:51:14.264Z,77.18
2018-08-28T23:53:44.298Z,77.41
2018-08-28T23:56:13.675Z,77.39
2018-08-28T23:58:43.038Z,77.83
